ESOW/VST METAR and TAF weather

Enter ICAO airport designator
Station Type Date Time Source
ESOW METAR 2019/08/22 15:20 UTC NOAA

ESOW 221520Z AUTO 19010KT 9999 SCT051/// BKN100/// 19/11 Q1022


Station Type Date Time Source
ESOW Decoded METAR 2019/08/22 15:20 UTC NOAA

Station name not available
Aug 22, 2019 - 11:20 AM EDT / 2019.08.22 1520 UTC
Wind: from the S (190 degrees) at 12 MPH (10 KT):0
Visibility: greater than 7 mile(s):0
Sky conditions: mostly cloudy
Temperature: 66 F (19 C)
Dew Point: 51 F (11 C)
Relative Humidity: 59%
Pressure (altimeter): 30.18 in. Hg (1022 hPa)
ob: ESOW 221520Z AUTO 19010KT 9999 SCT051/// BKN100/// 19/11 Q1022
cycle: 15

Station Type Date Time Source
ESOW TAF 2018/11/18 12:33 UTC NOAA

TAF ESOW 181130Z 1812/1914 02015KT 9999 BKN020
TEMPO 1812/1814 02015G25KT

Example: see airport list